sensor_id;sensor_type;location;lat;lon;timestamp;P1;durP1;ratioP1;P2;durP2;ratioP2
18072;SDS011;9161;47.348;9.648;2023-09-12T00:04:12;12.30;;;7.03;;
18072;SDS011;9161;47.348;9.648;2023-09-12T00:09:15;10.02;;;7.43;;
18072;SDS011;9161;47.348;9.648;2023-09-12T00:14:17;10.70;;;7.53;;
18072;SDS011;9161;47.348;9.648;2023-09-12T00:19:19;10.37;;;7.57;;
18072;SDS011;9161;47.348;9.648;2023-09-12T00:24:23;9.30;;;7.20;;
18072;SDS011;9161;47.348;9.648;2023-09-12T00:29:25;10.10;;;7.40;;
18072;SDS011;9161;47.348;9.648;2023-09-12T00:34:27;12.25;;;7.07;;
18072;SDS011;9161;47.348;9.648;2023-09-12T00:39:30;12.43;;;8.47;;
18072;SDS011;9161;47.348;9.648;2023-09-12T00:44:33;12.97;;;7.93;;
18072;SDS011;9161;47.348;9.648;2023-09-12T00:49:35;10.57;;;7.20;;
18072;SDS011;9161;47.348;9.648;2023-09-12T00:54:39;15.53;;;9.40;;
18072;SDS011;9161;47.348;9.648;2023-09-12T00:59:42;12.00;;;9.00;;
18072;SDS011;9161;47.348;9.648;2023-09-12T01:04:44;14.87;;;9.90;;
18072;SDS011;9161;47.348;9.648;2023-09-12T01:09:48;13.63;;;9.30;;
18072;SDS011;9161;47.348;9.648;2023-09-12T01:14:50;13.17;;;8.50;;
18072;SDS011;9161;47.348;9.648;2023-09-12T01:19:52;12.50;;;8.37;;
18072;SDS011;9161;47.348;9.648;2023-09-12T01:30:31;14.40;;;9.37;;
18072;SDS011;9161;47.348;9.648;2023-09-12T01:35:36;15.87;;;8.53;;
18072;SDS011;9161;47.348;9.648;2023-09-12T01:40:39;14.07;;;7.80;;
18072;SDS011;9161;47.348;9.648;2023-09-12T01:45:47;13.57;;;8.00;;
18072;SDS011;9161;47.348;9.648;2023-09-12T01:50:51;11.17;;;7.70;;
18072;SDS011;9161;47.348;9.648;2023-09-12T01:55:53;10.83;;;7.90;;
18072;SDS011;9161;47.348;9.648;2023-09-12T02:00:58;17.73;;;9.23;;
18072;SDS011;9161;47.348;9.648;2023-09-12T02:06:01;14.00;;;8.43;;
18072;SDS011;9161;47.348;9.648;2023-09-12T02:11:03;16.90;;;8.37;;
18072;SDS011;9161;47.348;9.648;2023-09-12T02:16:06;12.37;;;8.90;;
18072;SDS011;9161;47.348;9.648;2023-09-12T02:21:09;13.87;;;8.90;;
18072;SDS011;9161;47.348;9.648;2023-09-12T02:26:11;12.37;;;8.90;;
18072;SDS011;9161;47.348;9.648;2023-09-12T02:31:15;16.60;;;9.67;;
18072;SDS011;9161;47.348;9.648;2023-09-12T02:36:17;14.00;;;9.20;;
18072;SDS011;9161;47.348;9.648;2023-09-12T02:41:19;14.80;;;9.47;;
18072;SDS011;9161;47.348;9.648;2023-09-12T02:46:22;16.27;;;8.57;;
18072;SDS011;9161;47.348;9.648;2023-09-12T02:51:24;14.97;;;9.23;;
18072;SDS011;9161;47.348;9.648;2023-09-12T02:56:27;14.70;;;10.53;;
18072;SDS011;9161;47.348;9.648;2023-09-12T03:01:32;14.03;;;8.90;;
18072;SDS011;9161;47.348;9.648;2023-09-12T03:06:33;13.83;;;8.20;;
18072;SDS011;9161;47.348;9.648;2023-09-12T03:11:35;12.80;;;8.47;;
18072;SDS011;9161;47.348;9.648;2023-09-12T03:16:39;14.77;;;8.37;;
18072;SDS011;9161;47.348;9.648;2023-09-12T03:21:41;16.23;;;8.83;;
18072;SDS011;9161;47.348;9.648;2023-09-12T03:26:44;11.83;;;8.57;;
18072;SDS011;9161;47.348;9.648;2023-09-12T03:31:47;18.67;;;8.83;;
18072;SDS011;9161;47.348;9.648;2023-09-12T03:36:49;12.73;;;9.00;;
18072;SDS011;9161;47.348;9.648;2023-09-12T03:41:51;14.77;;;9.70;;
18072;SDS011;9161;47.348;9.648;2023-09-12T03:46:54;17.33;;;10.53;;
18072;SDS011;9161;47.348;9.648;2023-09-12T03:51:57;32.57;;;11.33;;
18072;SDS011;9161;47.348;9.648;2023-09-12T03:56:59;17.50;;;10.40;;
18072;SDS011;9161;47.348;9.648;2023-09-12T04:02:03;22.47;;;10.33;;
18072;SDS011;9161;47.348;9.648;2023-09-12T04:07:06;14.30;;;9.80;;
18072;SDS011;9161;47.348;9.648;2023-09-12T04:12:08;14.40;;;9.33;;
18072;SDS011;9161;47.348;9.648;2023-09-12T04:17:11;17.77;;;11.13;;
18072;SDS011;9161;47.348;9.648;2023-09-12T04:22:13;19.33;;;9.70;;
18072;SDS011;9161;47.348;9.648;2023-09-12T04:27:16;22.53;;;10.60;;
18072;SDS011;9161;47.348;9.648;2023-09-12T04:32:20;23.17;;;10.03;;
18072;SDS011;9161;47.348;9.648;2023-09-12T04:37:24;20.77;;;10.17;;
18072;SDS011;9161;47.348;9.648;2023-09-12T04:42:27;52.03;;;11.63;;
18072;SDS011;9161;47.348;9.648;2023-09-12T04:47:30;38.23;;;11.10;;
18072;SDS011;9161;47.348;9.648;2023-09-12T04:52:33;31.37;;;10.70;;
18072;SDS011;9161;47.348;9.648;2023-09-12T04:57:34;27.37;;;10.20;;
18072;SDS011;9161;47.348;9.648;2023-09-12T05:02:41;27.17;;;10.37;;
18072;SDS011;9161;47.348;9.648;2023-09-12T05:07:44;25.30;;;10.23;;
18072;SDS011;9161;47.348;9.648;2023-09-12T05:12:46;26.13;;;10.87;;
18072;SDS011;9161;47.348;9.648;2023-09-12T05:17:49;19.20;;;10.67;;
18072;SDS011;9161;47.348;9.648;2023-09-12T05:22:54;15.77;;;10.80;;
18072;SDS011;9161;47.348;9.648;2023-09-12T05:27:56;17.77;;;9.30;;
18072;SDS011;9161;47.348;9.648;2023-09-12T05:32:59;26.07;;;11.33;;
18072;SDS011;9161;47.348;9.648;2023-09-12T05:38:01;19.30;;;10.10;;
18072;SDS011;9161;47.348;9.648;2023-09-12T05:43:04;18.67;;;9.00;;
18072;SDS011;9161;47.348;9.648;2023-09-12T05:48:07;25.20;;;10.33;;
18072;SDS011;9161;47.348;9.648;2023-09-12T05:53:10;25.73;;;11.13;;
18072;SDS011;9161;47.348;9.648;2023-09-12T05:58:12;142.10;;;16.10;;
18072;SDS011;9161;47.348;9.648;2023-09-12T06:03:16;22.90;;;9.97;;
18072;SDS011;9161;47.348;9.648;2023-09-12T06:08:18;36.30;;;10.70;;
18072;SDS011;9161;47.348;9.648;2023-09-12T06:13:21;195.80;;;19.07;;
18072;SDS011;9161;47.348;9.648;2023-09-12T06:18:24;52.10;;;11.87;;
18072;SDS011;9161;47.348;9.648;2023-09-12T06:23:29;28.60;;;11.40;;
18072;SDS011;9161;47.348;9.648;2023-09-12T06:28:31;32.10;;;10.80;;
18072;SDS011;9161;47.348;9.648;2023-09-12T06:33:35;24.00;;;10.68;;
18072;SDS011;9161;47.348;9.648;2023-09-12T06:38:39;18.38;;;10.68;;
18072;SDS011;9161;47.348;9.648;2023-09-12T06:43:41;26.83;;;9.95;;
18072;SDS011;9161;47.348;9.648;2023-09-12T06:48:45;17.52;;;10.48;;
18072;SDS011;9161;47.348;9.648;2023-09-12T06:53:49;16.67;;;9.45;;
18072;SDS011;9161;47.348;9.648;2023-09-12T06:58:51;14.25;;;8.90;;
18072;SDS011;9161;47.348;9.648;2023-09-12T07:03:56;23.58;;;9.55;;
18072;SDS011;9161;47.348;9.648;2023-09-12T07:08:59;12.13;;;7.57;;
18072;SDS011;9161;47.348;9.648;2023-09-12T07:14:02;11.45;;;8.60;;
18072;SDS011;9161;47.348;9.648;2023-09-12T07:19:06;18.15;;;8.48;;
18072;SDS011;9161;47.348;9.648;2023-09-12T07:24:10;23.38;;;8.88;;
18072;SDS011;9161;47.348;9.648;2023-09-12T07:29:12;10.82;;;7.68;;
18072;SDS011;9161;47.348;9.648;2023-09-12T07:34:16;11.75;;;7.68;;
18072;SDS011;9161;47.348;9.648;2023-09-12T07:39:18;10.20;;;7.00;;
18072;SDS011;9161;47.348;9.648;2023-09-12T07:44:20;10.80;;;7.40;;
18072;SDS011;9161;47.348;9.648;2023-09-12T07:49:23;17.02;;;6.90;;
18072;SDS011;9161;47.348;9.648;2023-09-12T07:54:26;12.10;;;6.97;;
18072;SDS011;9161;47.348;9.648;2023-09-12T07:59:28;12.95;;;6.80;;
18072;SDS011;9161;47.348;9.648;2023-09-12T08:04:31;14.35;;;8.00;;
18072;SDS011;9161;47.348;9.648;2023-09-12T08:09:47;16.63;;;8.13;;
18072;SDS011;9161;47.348;9.648;2023-09-12T08:14:51;16.40;;;7.97;;
18072;SDS011;9161;47.348;9.648;2023-09-12T08:19:55;19.30;;;8.27;;
18072;SDS011;9161;47.348;9.648;2023-09-12T08:24:56;11.43;;;7.30;;
18072;SDS011;9161;47.348;9.648;2023-09-12T08:29:59;9.10;;;6.80;;
18072;SDS011;9161;47.348;9.648;2023-09-12T08:35:02;12.05;;;7.32;;
18072;SDS011;9161;47.348;9.648;2023-09-12T08:40:05;11.35;;;7.38;;
18072;SDS011;9161;47.348;9.648;2023-09-12T08:45:11;13.75;;;7.50;;
18072;SDS011;9161;47.348;9.648;2023-09-12T08:50:16;16.00;;;7.97;;
18072;SDS011;9161;47.348;9.648;2023-09-12T08:55:18;10.90;;;7.25;;
18072;SDS011;9161;47.348;9.648;2023-09-12T09:00:20;34.95;;;10.90;;
18072;SDS011;9161;47.348;9.648;2023-09-12T09:05:26;12.32;;;7.00;;
18072;SDS011;9161;47.348;9.648;2023-09-12T09:10:29;13.23;;;7.90;;
18072;SDS011;9161;47.348;9.648;2023-09-12T09:15:49;9.57;;;6.93;;
18072;SDS011;9161;47.348;9.648;2023-09-12T09:21:18;12.65;;;7.28;;
18072;SDS011;9161;47.348;9.648;2023-09-12T09:26:20;23.60;;;10.45;;
18072;SDS011;9161;47.348;9.648;2023-09-12T09:31:23;10.63;;;7.38;;
18072;SDS011;9161;47.348;9.648;2023-09-12T09:36:27;27.77;;;7.88;;
18072;SDS011;9161;47.348;9.648;2023-09-12T09:41:31;21.52;;;7.65;;
18072;SDS011;9161;47.348;9.648;2023-09-12T09:46:34;11.00;;;7.78;;
18072;SDS011;9161;47.348;9.648;2023-09-12T09:51:41;14.45;;;7.70;;
18072;SDS011;9161;47.348;9.648;2023-09-12T09:56:47;13.60;;;7.85;;
18072;SDS011;9161;47.348;9.648;2023-09-12T10:01:50;11.68;;;7.85;;
18072;SDS011;9161;47.348;9.648;2023-09-12T10:06:57;12.35;;;7.60;;
18072;SDS011;9161;47.348;9.648;2023-09-12T10:11:59;15.80;;;7.60;;
18072;SDS011;9161;47.348;9.648;2023-09-12T10:17:01;15.38;;;6.78;;
18072;SDS011;9161;47.348;9.648;2023-09-12T10:22:09;8.23;;;7.15;;
18072;SDS011;9161;47.348;9.648;2023-09-12T10:27:14;8.95;;;7.28;;
18072;SDS011;9161;47.348;9.648;2023-09-12T10:32:18;10.70;;;6.78;;
18072;SDS011;9161;47.348;9.648;2023-09-12T10:37:22;9.27;;;7.03;;
18072;SDS011;9161;47.348;9.648;2023-09-12T10:42:25;12.18;;;7.03;;
18072;SDS011;9161;47.348;9.648;2023-09-12T10:47:30;22.15;;;8.13;;
18072;SDS011;9161;47.348;9.648;2023-09-12T10:52:34;14.05;;;7.25;;
18072;SDS011;9161;47.348;9.648;2023-09-12T10:57:52;9.93;;;7.30;;
18072;SDS011;9161;47.348;9.648;2023-09-12T11:08:41;13.82;;;7.53;;
18072;SDS011;9161;47.348;9.648;2023-09-12T11:13:44;12.90;;;8.00;;
18072;SDS011;9161;47.348;9.648;2023-09-12T11:24:16;15.18;;;7.75;;
18072;SDS011;9161;47.348;9.648;2023-09-12T11:29:19;11.10;;;7.50;;
18072;SDS011;9161;47.348;9.648;2023-09-12T11:34:21;12.82;;;7.68;;
18072;SDS011;9161;47.348;9.648;2023-09-12T11:39:27;12.52;;;7.30;;
18072;SDS011;9161;47.348;9.648;2023-09-12T11:44:31;31.35;;;8.48;;
18072;SDS011;9161;47.348;9.648;2023-09-12T11:49:37;9.43;;;6.40;;
18072;SDS011;9161;47.348;9.648;2023-09-12T11:54:42;9.70;;;7.07;;
18072;SDS011;9161;47.348;9.648;2023-09-12T11:59:45;9.32;;;6.32;;
18072;SDS011;9161;47.348;9.648;2023-09-12T12:04:49;23.98;;;6.45;;
18072;SDS011;9161;47.348;9.648;2023-09-12T12:09:55;24.80;;;7.10;;
18072;SDS011;9161;47.348;9.648;2023-09-12T12:14:57;13.27;;;6.57;;
18072;SDS011;9161;47.348;9.648;2023-09-12T12:19:59;20.98;;;7.88;;
18072;SDS011;9161;47.348;9.648;2023-09-12T12:25:11;10.50;;;7.60;;
18072;SDS011;9161;47.348;9.648;2023-09-12T12:30:18;14.70;;;7.20;;
18072;SDS011;9161;47.348;9.648;2023-09-12T12:35:22;8.55;;;6.78;;
18072;SDS011;9161;47.348;9.648;2023-09-12T12:40:46;11.45;;;7.20;;
18072;SDS011;9161;47.348;9.648;2023-09-12T12:45:52;13.15;;;7.25;;
18072;SDS011;9161;47.348;9.648;2023-09-12T12:50:55;173.55;;;15.90;;
18072;SDS011;9161;47.348;9.648;2023-09-12T12:55:58;9.05;;;7.40;;
18072;SDS011;9161;47.348;9.648;2023-09-12T13:01:01;12.52;;;7.40;;
18072;SDS011;9161;47.348;9.648;2023-09-12T13:06:03;9.95;;;6.60;;
18072;SDS011;9161;47.348;9.648;2023-09-12T13:11:08;12.05;;;6.80;;
18072;SDS011;9161;47.348;9.648;2023-09-12T13:16:12;14.95;;;7.75;;
18072;SDS011;9161;47.348;9.648;2023-09-12T13:21:15;9.98;;;7.72;;
18072;SDS011;9161;47.348;9.648;2023-09-12T13:26:19;9.45;;;7.30;;
18072;SDS011;9161;47.348;9.648;2023-09-12T13:31:20;152.32;;;15.93;;
18072;SDS011;9161;47.348;9.648;2023-09-12T13:36:23;12.18;;;7.80;;
18072;SDS011;9161;47.348;9.648;2023-09-12T13:41:26;15.27;;;7.57;;
18072;SDS011;9161;47.348;9.648;2023-09-12T13:46:29;34.70;;;9.18;;
18072;SDS011;9161;47.348;9.648;2023-09-12T13:51:31;11.02;;;7.35;;
18072;SDS011;9161;47.348;9.648;2023-09-12T13:56:35;30.50;;;8.65;;
18072;SDS011;9161;47.348;9.648;2023-09-12T14:01:37;15.30;;;8.75;;
18072;SDS011;9161;47.348;9.648;2023-09-12T14:06:41;13.65;;;8.57;;
18072;SDS011;9161;47.348;9.648;2023-09-12T14:11:46;12.60;;;8.52;;
18072;SDS011;9161;47.348;9.648;2023-09-12T14:16:50;15.65;;;8.45;;
18072;SDS011;9161;47.348;9.648;2023-09-12T14:21:56;30.65;;;8.95;;
18072;SDS011;9161;47.348;9.648;2023-09-12T14:27:06;9.77;;;7.55;;
18072;SDS011;9161;47.348;9.648;2023-09-12T14:32:26;31.95;;;9.07;;
18072;SDS011;9161;47.348;9.648;2023-09-12T14:37:32;20.48;;;8.57;;
18072;SDS011;9161;47.348;9.648;2023-09-12T14:42:39;14.48;;;8.63;;
18072;SDS011;9161;47.348;9.648;2023-09-12T14:47:45;16.75;;;9.25;;
18072;SDS011;9161;47.348;9.648;2023-09-12T14:52:53;11.15;;;6.10;;
18072;SDS011;9161;47.348;9.648;2023-09-12T14:58:00;57.28;;;9.05;;
18072;SDS011;9161;47.348;9.648;2023-09-12T15:03:15;5.63;;;2.40;;
18072;SDS011;9161;47.348;9.648;2023-09-12T15:08:23;9.98;;;2.80;;
18072;SDS011;9161;47.348;9.648;2023-09-12T15:13:35;15.93;;;5.25;;
18072;SDS011;9161;47.348;9.648;2023-09-12T15:18:46;7.28;;;1.98;;
18072;SDS011;9161;47.348;9.648;2023-09-12T15:23:52;8.90;;;2.83;;
18072;SDS011;9161;47.348;9.648;2023-09-12T15:28:59;9.27;;;3.85;;
18072;SDS011;9161;47.348;9.648;2023-09-12T15:34:06;12.88;;;4.75;;
18072;SDS011;9161;47.348;9.648;2023-09-12T15:39:13;10.18;;;4.65;;
18072;SDS011;9161;47.348;9.648;2023-09-12T15:44:22;11.02;;;5.15;;
18072;SDS011;9161;47.348;9.648;2023-09-12T15:49:35;7.50;;;5.03;;
18072;SDS011;9161;47.348;9.648;2023-09-12T15:54:43;7.57;;;2.90;;
18072;SDS011;9161;47.348;9.648;2023-09-12T15:59:49;6.85;;;2.50;;
18072;SDS011;9161;47.348;9.648;2023-09-12T16:04:53;12.82;;;2.78;;
18072;SDS011;9161;47.348;9.648;2023-09-12T16:09:58;10.02;;;2.85;;
18072;SDS011;9161;47.348;9.648;2023-09-12T16:15:11;9.00;;;2.85;;
18072;SDS011;9161;47.348;9.648;2023-09-12T16:20:21;5.57;;;2.78;;
18072;SDS011;9161;47.348;9.648;2023-09-12T16:25:28;4.93;;;2.58;;
18072;SDS011;9161;47.348;9.648;2023-09-12T16:30:38;5.70;;;2.80;;
18072;SDS011;9161;47.348;9.648;2023-09-12T16:35:45;7.25;;;2.63;;
18072;SDS011;9161;47.348;9.648;2023-09-12T16:40:52;7.10;;;2.80;;
18072;SDS011;9161;47.348;9.648;2023-09-12T16:45:58;5.70;;;2.50;;
18072;SDS011;9161;47.348;9.648;2023-09-12T16:51:03;5.22;;;2.58;;
18072;SDS011;9161;47.348;9.648;2023-09-12T16:56:09;8.38;;;3.60;;
18072;SDS011;9161;47.348;9.648;2023-09-12T17:01:16;8.25;;;4.85;;
18072;SDS011;9161;47.348;9.648;2023-09-12T17:06:21;12.75;;;4.20;;
18072;SDS011;9161;47.348;9.648;2023-09-12T17:11:27;5.65;;;3.30;;
18072;SDS011;9161;47.348;9.648;2023-09-12T17:16:34;5.40;;;3.05;;
18072;SDS011;9161;47.348;9.648;2023-09-12T17:21:41;5.93;;;2.65;;
18072;SDS011;9161;47.348;9.648;2023-09-12T17:26:51;6.30;;;3.33;;
18072;SDS011;9161;47.348;9.648;2023-09-12T17:32:03;10.38;;;3.22;;
18072;SDS011;9161;47.348;9.648;2023-09-12T17:37:17;7.88;;;3.17;;
18072;SDS011;9161;47.348;9.648;2023-09-12T17:42:27;8.55;;;3.78;;
18072;SDS011;9161;47.348;9.648;2023-09-12T17:47:39;9.40;;;3.42;;
18072;SDS011;9161;47.348;9.648;2023-09-12T17:52:54;12.70;;;4.80;;
18072;SDS011;9161;47.348;9.648;2023-09-12T17:58:03;12.20;;;5.18;;
18072;SDS011;9161;47.348;9.648;2023-09-12T18:03:14;8.98;;;4.55;;
18072;SDS011;9161;47.348;9.648;2023-09-12T18:08:27;8.00;;;4.07;;
18072;SDS011;9161;47.348;9.648;2023-09-12T18:13:38;9.73;;;4.15;;
18072;SDS011;9161;47.348;9.648;2023-09-12T18:18:50;10.18;;;4.53;;
18072;SDS011;9161;47.348;9.648;2023-09-12T18:24:01;9.23;;;4.60;;
18072;SDS011;9161;47.348;9.648;2023-09-12T18:29:14;9.68;;;4.43;;
18072;SDS011;9161;47.348;9.648;2023-09-12T18:34:29;12.07;;;5.68;;
18072;SDS011;9161;47.348;9.648;2023-09-12T18:39:44;10.32;;;4.75;;
18072;SDS011;9161;47.348;9.648;2023-09-12T18:44:54;5.20;;;3.88;;
18072;SDS011;9161;47.348;9.648;2023-09-12T18:50:04;8.50;;;4.63;;
18072;SDS011;9161;47.348;9.648;2023-09-12T18:55:13;11.93;;;5.10;;
18072;SDS011;9161;47.348;9.648;2023-09-12T19:00:31;8.60;;;4.32;;
18072;SDS011;9161;47.348;9.648;2023-09-12T19:06:24;12.48;;;5.15;;
18072;SDS011;9161;47.348;9.648;2023-09-12T19:11:32;8.20;;;4.32;;
18072;SDS011;9161;47.348;9.648;2023-09-12T19:16:54;10.52;;;4.78;;
18072;SDS011;9161;47.348;9.648;2023-09-12T19:22:05;12.52;;;4.53;;
18072;SDS011;9161;47.348;9.648;2023-09-12T19:27:14;7.68;;;3.95;;
18072;SDS011;9161;47.348;9.648;2023-09-12T19:32:46;8.48;;;4.20;;
18072;SDS011;9161;47.348;9.648;2023-09-12T19:37:57;7.32;;;4.00;;
18072;SDS011;9161;47.348;9.648;2023-09-12T19:43:16;6.38;;;3.83;;
18072;SDS011;9161;47.348;9.648;2023-09-12T19:48:32;7.07;;;4.30;;
18072;SDS011;9161;47.348;9.648;2023-09-12T19:53:43;8.73;;;4.13;;
18072;SDS011;9161;47.348;9.648;2023-09-12T19:58:51;8.48;;;4.38;;
18072;SDS011;9161;47.348;9.648;2023-09-12T20:03:59;7.10;;;4.07;;
18072;SDS011;9161;47.348;9.648;2023-09-12T20:09:09;7.32;;;4.70;;
18072;SDS011;9161;47.348;9.648;2023-09-12T20:14:18;10.10;;;5.57;;
18072;SDS011;9161;47.348;9.648;2023-09-12T20:19:23;7.57;;;5.35;;
18072;SDS011;9161;47.348;9.648;2023-09-12T20:24:30;7.28;;;5.35;;
18072;SDS011;9161;47.348;9.648;2023-09-12T20:29:36;5.90;;;4.25;;
18072;SDS011;9161;47.348;9.648;2023-09-12T20:34:42;9.63;;;4.28;;
18072;SDS011;9161;47.348;9.648;2023-09-12T20:39:49;8.48;;;4.40;;
18072;SDS011;9161;47.348;9.648;2023-09-12T20:44:56;8.95;;;4.40;;
18072;SDS011;9161;47.348;9.648;2023-09-12T20:50:13;11.13;;;4.97;;
18072;SDS011;9161;47.348;9.648;2023-09-12T20:55:29;10.07;;;4.15;;
18072;SDS011;9161;47.348;9.648;2023-09-12T21:00:35;9.00;;;4.70;;
18072;SDS011;9161;47.348;9.648;2023-09-12T21:05:40;11.57;;;5.20;;
18072;SDS011;9161;47.348;9.648;2023-09-12T21:10:47;8.25;;;5.35;;
18072;SDS011;9161;47.348;9.648;2023-09-12T21:15:50;8.02;;;5.07;;
18072;SDS011;9161;47.348;9.648;2023-09-12T21:20:53;9.73;;;5.05;;
18072;SDS011;9161;47.348;9.648;2023-09-12T21:25:57;11.70;;;5.85;;
18072;SDS011;9161;47.348;9.648;2023-09-12T21:30:59;8.82;;;5.00;;
18072;SDS011;9161;47.348;9.648;2023-09-12T21:36:03;9.18;;;4.93;;
18072;SDS011;9161;47.348;9.648;2023-09-12T21:41:08;8.88;;;5.13;;
18072;SDS011;9161;47.348;9.648;2023-09-12T21:46:11;9.38;;;5.07;;
18072;SDS011;9161;47.348;9.648;2023-09-12T21:51:13;9.60;;;4.80;;
18072;SDS011;9161;47.348;9.648;2023-09-12T21:56:16;10.85;;;5.18;;
18072;SDS011;9161;47.348;9.648;2023-09-12T22:01:18;9.75;;;4.90;;
18072;SDS011;9161;47.348;9.648;2023-09-12T22:06:22;9.77;;;4.70;;
18072;SDS011;9161;47.348;9.648;2023-09-12T22:11:29;10.80;;;5.40;;
18072;SDS011;9161;47.348;9.648;2023-09-12T22:16:31;8.80;;;5.25;;
18072;SDS011;9161;47.348;9.648;2023-09-12T22:21:34;10.45;;;5.65;;
18072;SDS011;9161;47.348;9.648;2023-09-12T22:26:40;14.50;;;6.75;;
18072;SDS011;9161;47.348;9.648;2023-09-12T22:31:43;11.95;;;6.45;;
18072;SDS011;9161;47.348;9.648;2023-09-12T22:36:45;12.15;;;6.13;;
18072;SDS011;9161;47.348;9.648;2023-09-12T22:41:48;11.55;;;5.78;;
18072;SDS011;9161;47.348;9.648;2023-09-12T22:46:51;11.85;;;6.10;;
18072;SDS011;9161;47.348;9.648;2023-09-12T22:51:54;12.98;;;6.55;;
18072;SDS011;9161;47.348;9.648;2023-09-12T22:56:57;10.20;;;5.40;;
18072;SDS011;9161;47.348;9.648;2023-09-12T23:01:59;9.85;;;5.57;;
18072;SDS011;9161;47.348;9.648;2023-09-12T23:07:01;7.25;;;5.20;;
18072;SDS011;9161;47.348;9.648;2023-09-12T23:12:06;10.65;;;5.40;;
18072;SDS011;9161;47.348;9.648;2023-09-12T23:17:09;8.90;;;5.22;;
18072;SDS011;9161;47.348;9.648;2023-09-12T23:22:12;10.48;;;5.40;;
18072;SDS011;9161;47.348;9.648;2023-09-12T23:27:15;11.15;;;5.72;;
18072;SDS011;9161;47.348;9.648;2023-09-12T23:32:17;17.05;;;5.97;;
18072;SDS011;9161;47.348;9.648;2023-09-12T23:37:22;11.00;;;5.50;;
18072;SDS011;9161;47.348;9.648;2023-09-12T23:42:26;10.07;;;5.53;;
18072;SDS011;9161;47.348;9.648;2023-09-12T23:47:28;9.27;;;5.57;;
18072;SDS011;9161;47.348;9.648;2023-09-12T23:52:31;11.13;;;5.25;;
18072;SDS011;9161;47.348;9.648;2023-09-12T23:57:36;12.75;;;5.50;;
